createdAt,value
2023-05-08T00:01:38.848Z,92.81
2023-05-08T00:04:06.407Z,93.83
2023-05-08T00:06:34.917Z,96.06
2023-05-08T00:09:04.007Z,96.11
2023-05-08T00:11:33.038Z,97.30
2023-05-08T00:14:02.062Z,98.14
2023-05-08T00:16:32.355Z,96.90
2023-05-08T00:19:01.396Z,97.30
2023-05-08T00:21:31.404Z,97.41
2023-05-08T00:23:59.591Z,98.33
2023-05-08T00:26:27.780Z,97.94
2023-05-08T00:28:55.994Z,98.13
2023-05-08T00:31:24.320Z,98.38
2023-05-08T00:33:52.583Z,98.33
2023-05-08T00:36:20.751Z,98.80
2023-05-08T00:38:49.013Z,99.33
2023-05-08T00:41:16.376Z,97.68
2023-05-08T00:43:43.805Z,98.65
2023-05-08T00:46:13.663Z,98.17
2023-05-08T00:48:42.912Z,99.32
2023-05-08T00:51:11.706Z,99.11
2023-05-08T00:53:43.440Z,100.00
2023-05-08T00:56:15.217Z,100.00
2023-05-08T00:58:43.990Z,100.00
2023-05-08T01:01:12.790Z,100.00
2023-05-08T01:03:41.186Z,100.00
2023-05-08T01:06:08.940Z,100.00
2023-05-08T01:08:36.339Z,100.00
2023-05-08T01:11:14.045Z,98.58
2023-05-08T01:14:06.311Z,98.57
2023-05-08T01:16:45.398Z,99.29
2023-05-08T01:19:41.339Z,100.00
2023-05-08T01:22:59.409Z,99.34
2023-05-08T01:26:15.955Z,98.90
2023-05-08T01:29:44.027Z,99.05
2023-05-08T01:32:30.706Z,99.52
2023-05-08T01:35:10.777Z,97.84
2023-05-08T01:37:46.903Z,98.10
2023-05-08T01:40:41.373Z,99.99
2023-05-08T01:43:26.039Z,100.00
2023-05-08T01:45:56.883Z,100.00
2023-05-08T01:49:03.861Z,100.00
2023-05-08T01:51:42.247Z,100.00
2023-05-08T01:54:16.231Z,100.00
2023-05-08T01:56:47.257Z,100.00
2023-05-08T01:59:20.152Z,100.00
2023-05-08T02:01:51.207Z,100.00
2023-05-08T02:04:20.158Z,100.00
2023-05-08T02:06:48.617Z,100.00
2023-05-08T02:09:17.080Z,100.00
2023-05-08T02:11:47.577Z,100.00
2023-05-08T02:14:20.640Z,100.00
2023-05-08T02:16:52.078Z,100.00
2023-05-08T02:19:23.911Z,100.00
2023-05-08T02:21:53.400Z,100.00
2023-05-08T02:24:24.260Z,100.00
2023-05-08T02:26:54.813Z,100.00
2023-05-08T02:29:24.383Z,100.00
2023-05-08T02:31:54.786Z,100.00
2023-05-08T02:34:24.765Z,100.00
2023-05-08T02:36:54.888Z,100.00
2023-05-08T02:39:26.896Z,100.00
2023-05-08T02:41:54.232Z,100.00
2023-05-08T02:44:21.600Z,100.00
2023-05-08T02:47:20.393Z,100.00
2023-05-08T02:50:12.158Z,100.00
2023-05-08T02:52:49.878Z,100.00
2023-05-08T02:55:43.226Z,100.00
2023-05-08T02:58:58.209Z,100.00
2023-05-08T03:01:33.745Z,100.00
2023-05-08T03:04:08.711Z,100.00
2023-05-08T03:06:46.186Z,100.00
2023-05-08T03:09:19.970Z,100.00
2023-05-08T03:11:50.658Z,100.00
2023-05-08T03:14:23.190Z,100.00
2023-05-08T03:16:54.115Z,100.00
2023-05-08T03:19:34.752Z,100.00
2023-05-08T03:22:05.728Z,100.00
2023-05-08T03:24:37.421Z,100.00
2023-05-08T03:27:07.704Z,100.00
2023-05-08T03:29:36.797Z,100.00
2023-05-08T03:32:04.532Z,100.00
2023-05-08T03:34:34.045Z,100.00
2023-05-08T03:37:03.297Z,100.00
2023-05-08T03:39:31.452Z,100.00
2023-05-08T03:42:00.638Z,100.00
2023-05-08T03:44:31.270Z,98.80
2023-05-08T03:46:59.590Z,99.61
2023-05-08T03:49:27.278Z,100.00
2023-05-08T03:51:56.779Z,100.00
2023-05-08T03:54:25.750Z,100.00
2023-05-08T03:56:54.626Z,100.00
2023-05-08T04:00:10.079Z,100.00
2023-05-08T04:02:42.459Z,100.00
2023-05-08T04:05:38.051Z,100.00
2023-05-08T04:08:29.847Z,96.88
2023-05-08T04:11:36.892Z,95.94
2023-05-08T04:14:08.589Z,97.87
2023-05-08T04:16:41.141Z,97.90
2023-05-08T04:19:20.767Z,99.47
2023-05-08T04:21:51.315Z,100.00
2023-05-08T04:24:20.190Z,100.00
2023-05-08T04:26:49.550Z,100.00
2023-05-08T04:29:18.785Z,99.06
2023-05-08T04:31:48.392Z,97.17
2023-05-08T04:34:16.527Z,97.07
2023-05-08T04:36:45.436Z,96.14
2023-05-08T04:39:13.665Z,95.42
2023-05-08T04:41:41.911Z,96.86
2023-05-08T04:44:10.182Z,96.05
2023-05-08T04:46:37.510Z,95.79
2023-05-08T04:49:05.769Z,94.77
2023-05-08T04:51:33.143Z,93.54
2023-05-08T04:54:01.394Z,93.51
2023-05-08T04:56:28.647Z,93.05
2023-05-08T04:58:56.740Z,94.30
2023-05-08T05:01:24.070Z,92.64
2023-05-08T05:03:51.366Z,92.29
2023-05-08T05:06:19.481Z,90.79
2023-05-08T05:08:46.767Z,90.10
2023-05-08T05:11:14.078Z,88.25
2023-05-08T05:13:43.118Z,86.45
2023-05-08T05:16:10.501Z,85.79
2023-05-08T05:18:37.840Z,87.04
2023-05-08T05:21:05.103Z,86.38
2023-05-08T05:23:32.343Z,86.93
2023-05-08T05:25:59.611Z,87.09
2023-05-08T05:28:26.821Z,83.67
2023-05-08T05:30:57.587Z,84.01
2023-05-08T05:33:24.986Z,84.03
2023-05-08T05:35:52.976Z,83.47
2023-05-08T05:38:22.000Z,80.67
2023-05-08T05:40:49.770Z,80.60
2023-05-08T05:43:18.901Z,80.50
2023-05-08T05:45:46.120Z,81.37
2023-05-08T05:48:13.406Z,81.89
2023-05-08T05:50:40.661Z,80.78
2023-05-08T05:53:07.958Z,79.33
2023-05-08T05:55:36.019Z,79.62
2023-05-08T05:58:05.159Z,78.25
2023-05-08T06:00:34.172Z,78.23
2023-05-08T06:03:03.124Z,77.81
2023-05-08T06:05:30.620Z,77.43
2023-05-08T06:07:58.013Z,77.13
2023-05-08T06:10:25.678Z,78.79
2023-05-08T06:12:53.636Z,75.89
2023-05-08T06:17:54.543Z,73.94
2023-05-08T06:20:22.327Z,73.14
2023-05-08T06:22:50.151Z,73.32
2023-05-08T06:25:19.690Z,72.18
2023-05-08T06:27:48.687Z,71.64
2023-05-08T06:30:19.489Z,69.52
2023-05-08T06:32:46.781Z,68.16
2023-05-08T06:35:18.870Z,69.39
2023-05-08T06:37:49.642Z,68.24
2023-05-08T06:40:19.213Z,66.35
2023-05-08T06:42:46.509Z,65.47
2023-05-08T06:45:15.864Z,66.17
2023-05-08T06:47:43.411Z,60.76
2023-05-08T06:50:11.038Z,59.55
2023-05-08T06:52:39.292Z,59.32
2023-05-08T06:55:06.836Z,59.88
2023-05-08T06:57:37.527Z,57.43
2023-05-08T07:00:05.212Z,54.72
2023-05-08T07:02:32.742Z,54.65
2023-05-08T07:05:00.033Z,54.08
2023-05-08T07:07:30.794Z,54.26
2023-05-08T07:09:57.971Z,54.65
2023-05-08T07:12:25.239Z,54.12
2023-05-08T07:14:52.459Z,54.03
2023-05-08T07:17:19.700Z,52.78
2023-05-08T07:19:51.667Z,54.27
2023-05-08T07:22:19.101Z,52.98
2023-05-08T07:24:48.169Z,52.59
2023-05-08T07:27:15.419Z,53.70
2023-05-08T07:29:42.912Z,51.75
2023-05-08T07:32:10.540Z,52.98
2023-05-08T07:34:37.740Z,51.96
2023-05-08T07:37:05.030Z,51.12
2023-05-08T07:39:32.447Z,51.31
2023-05-08T07:41:59.644Z,51.52
2023-05-08T07:44:26.907Z,52.07
2023-05-08T07:46:54.145Z,50.06
2023-05-08T07:49:21.380Z,51.86
2023-05-08T07:51:49.301Z,50.27
2023-05-08T07:54:16.564Z,50.65
2023-05-08T07:56:43.793Z,49.08
2023-05-08T07:59:10.989Z,48.73
2023-05-08T08:01:38.305Z,48.66
2023-05-08T08:04:06.151Z,48.90
2023-05-08T08:06:35.333Z,50.08
2023-05-08T08:09:02.543Z,49.58
2023-05-08T08:11:30.194Z,48.57
2023-05-08T08:13:57.415Z,47.85
2023-05-08T08:16:24.744Z,47.50
2023-05-08T08:18:53.150Z,46.52
2023-05-08T08:21:20.504Z,45.84
2023-05-08T08:23:47.687Z,45.13
2023-05-08T08:26:14.843Z,45.87
2023-05-08T08:28:42.073Z,45.98
2023-05-08T08:31:09.310Z,46.09
2023-05-08T08:33:36.834Z,48.43
2023-05-08T08:36:04.234Z,48.97
2023-05-08T08:38:31.530Z,48.28
2023-05-08T08:40:58.737Z,47.85
2023-05-08T08:43:26.868Z,47.62
2023-05-08T08:45:54.927Z,46.45
2023-05-08T08:48:28.663Z,43.63
2023-05-08T08:51:03.712Z,45.76
2023-05-08T08:53:40.620Z,48.35
2023-05-08T08:56:09.310Z,45.65
2023-05-08T08:58:50.019Z,46.00
2023-05-08T09:01:19.687Z,45.50
2023-05-08T09:03:48.357Z,45.51
2023-05-08T09:06:17.424Z,46.42
2023-05-08T09:08:45.319Z,45.19
2023-05-08T09:11:12.510Z,45.19
2023-05-08T09:13:39.794Z,43.55
2023-05-08T09:16:07.547Z,45.41
2023-05-08T09:18:34.740Z,46.73
2023-05-08T09:21:02.870Z,45.02
2023-05-08T09:23:30.156Z,45.19
2023-05-08T09:25:57.463Z,45.41
2023-05-08T09:28:26.425Z,46.36
2023-05-08T09:30:59.258Z,48.89
2023-05-08T09:33:28.912Z,47.26
2023-05-08T09:35:57.835Z,45.21
2023-05-08T09:38:40.320Z,45.55
2023-05-08T09:41:16.474Z,46.25
2023-05-08T09:43:45.414Z,46.89
2023-05-08T09:46:27.238Z,47.43
2023-05-08T09:48:57.513Z,45.58
2023-05-08T09:51:26.771Z,47.38
2023-05-08T09:53:57.424Z,44.73
2023-05-08T09:56:39.570Z,43.62
2023-05-08T09:59:30.775Z,44.33
2023-05-08T10:01:59.022Z,42.95
2023-05-08T10:04:35.554Z,44.76
2023-05-08T10:07:04.839Z,44.42
2023-05-08T10:09:46.756Z,41.95
2023-05-08T10:12:18.000Z,42.16
2023-05-08T10:14:46.881Z,43.02
2023-05-08T10:17:23.668Z,41.14
2023-05-08T10:20:00.331Z,42.51
2023-05-08T10:22:29.552Z,42.63
2023-05-08T10:24:59.436Z,42.04
2023-05-08T10:28:01.893Z,41.87
2023-05-08T10:30:32.363Z,40.15
2023-05-08T10:33:08.361Z,41.21
2023-05-08T10:35:38.106Z,40.61
2023-05-08T10:38:09.653Z,41.55
2023-05-08T10:40:38.882Z,39.49
2023-05-08T10:43:08.097Z,40.77
2023-05-08T10:45:37.553Z,39.20
2023-05-08T10:48:16.054Z,39.28
2023-05-08T10:51:12.921Z,40.84
2023-05-08T10:53:59.302Z,40.52
2023-05-08T10:56:28.651Z,40.08
2023-05-08T10:58:58.693Z,40.00
2023-05-08T11:01:27.921Z,39.42
2023-05-08T11:03:56.618Z,39.93
2023-05-08T11:06:49.279Z,41.24
2023-05-08T11:09:28.889Z,41.50
2023-05-08T11:12:10.658Z,41.82
2023-05-08T11:14:43.206Z,40.76
2023-05-08T11:17:11.585Z,39.87
2023-05-08T11:19:58.477Z,40.54
2023-05-08T11:22:37.231Z,39.99
2023-05-08T11:25:10.908Z,40.46
2023-05-08T11:28:07.211Z,40.20
2023-05-08T11:30:37.890Z,40.21
2023-05-08T11:33:05.922Z,41.65
2023-05-08T11:35:47.253Z,43.72
2023-05-08T11:38:18.960Z,42.55
2023-05-08T11:41:06.156Z,42.29
2023-05-08T11:43:34.152Z,40.72
2023-05-08T11:46:15.770Z,39.99
2023-05-08T11:48:44.376Z,39.24
2023-05-08T11:51:13.850Z,39.59
2023-05-08T11:53:42.077Z,40.13
2023-05-08T11:56:10.258Z,39.03
2023-05-08T11:58:38.203Z,38.39
2023-05-08T12:01:06.191Z,39.26
2023-05-08T12:03:34.447Z,38.95
2023-05-08T12:06:02.544Z,38.90
2023-05-08T12:08:30.482Z,38.02
2023-05-08T12:10:58.725Z,38.76
2023-05-08T12:13:29.298Z,38.40
2023-05-08T12:16:00.408Z,38.23
2023-05-08T12:18:30.717Z,37.21
2023-05-08T12:21:01.007Z,38.58
2023-05-08T12:23:30.534Z,37.95
2023-05-08T12:26:02.296Z,38.25
2023-05-08T12:28:32.576Z,36.64
2023-05-08T12:31:01.663Z,37.96
2023-05-08T12:33:31.019Z,37.12
2023-05-08T12:35:59.817Z,36.44
2023-05-08T12:38:29.736Z,35.71
2023-05-08T12:40:57.662Z,36.84
2023-05-08T12:43:34.079Z,35.36
2023-05-08T12:46:05.855Z,36.06
2023-05-08T12:48:33.803Z,36.76
2023-05-08T12:51:04.177Z,36.18
2023-05-08T12:53:33.395Z,35.41
2023-05-08T12:56:04.435Z,36.93
2023-05-08T12:58:35.000Z,36.01
2023-05-08T13:01:14.877Z,36.92
2023-05-08T13:03:42.979Z,36.34
2023-05-08T13:06:22.026Z,36.16
2023-05-08T13:08:57.621Z,37.07
2023-05-08T13:11:33.489Z,37.78
2023-05-08T13:14:01.498Z,37.36
2023-05-08T13:16:29.573Z,38.25
2023-05-08T13:18:57.499Z,38.12
2023-05-08T13:21:27.659Z,37.83
2023-05-08T13:23:57.036Z,37.75
2023-05-08T13:26:25.878Z,37.11
2023-05-08T13:28:56.214Z,38.35
2023-05-08T13:31:24.910Z,37.41
2023-05-08T13:33:52.909Z,37.49
2023-05-08T13:36:21.150Z,38.23
2023-05-08T13:38:54.411Z,38.52
2023-05-08T13:41:22.332Z,37.91
2023-05-08T13:43:50.231Z,37.84
2023-05-08T13:46:18.188Z,38.44
2023-05-08T13:48:46.142Z,37.69
2023-05-08T13:51:14.040Z,37.34
2023-05-08T13:53:41.939Z,37.74
2023-05-08T13:56:09.811Z,37.33
2023-05-08T13:58:37.752Z,37.07
2023-05-08T14:01:22.014Z,37.56
2023-05-08T14:03:54.035Z,36.61
2023-05-08T14:06:22.038Z,38.62
2023-05-08T14:08:52.298Z,37.71
2023-05-08T14:11:22.559Z,36.00
2023-05-08T14:13:50.793Z,36.81
2023-05-08T14:16:18.873Z,37.13
2023-05-08T14:18:46.793Z,37.56
2023-05-08T14:21:14.701Z,37.33
2023-05-08T14:23:44.045Z,36.59
2023-05-08T14:26:11.953Z,37.66
2023-05-08T14:28:39.877Z,37.03
2023-05-08T14:31:07.911Z,37.97
2023-05-08T14:33:35.845Z,38.61
2023-05-08T14:36:03.926Z,38.68
2023-05-08T14:38:31.472Z,38.47
2023-05-08T14:40:58.825Z,39.98
2023-05-08T14:43:26.565Z,40.21
2023-05-08T14:45:53.818Z,41.13
2023-05-08T14:48:21.028Z,41.01
2023-05-08T14:50:48.229Z,40.85
2023-05-08T14:53:15.606Z,41.55
2023-05-08T14:55:43.152Z,42.02
2023-05-08T14:58:10.802Z,41.73
2023-05-08T15:00:38.000Z,42.03
2023-05-08T15:03:05.508Z,41.78
2023-05-08T15:05:33.186Z,42.59
2023-05-08T15:08:02.862Z,42.79
2023-05-08T15:10:32.035Z,42.54
2023-05-08T15:12:59.380Z,42.17
2023-05-08T15:15:26.767Z,43.50
2023-05-08T15:17:54.016Z,42.99
2023-05-08T15:20:21.668Z,42.86
2023-05-08T15:22:49.451Z,43.06
2023-05-08T15:25:16.927Z,43.51
2023-05-08T15:27:44.354Z,42.37
2023-05-08T15:30:12.302Z,42.57
2023-05-08T15:32:40.461Z,43.19
2023-05-08T15:35:08.093Z,43.75
2023-05-08T15:37:37.232Z,43.45
2023-05-08T15:40:04.841Z,43.92
2023-05-08T15:42:33.976Z,42.84
2023-05-08T15:45:02.313Z,43.76
2023-05-08T15:47:29.573Z,44.28
2023-05-08T15:49:58.629Z,44.67
2023-05-08T15:52:25.892Z,44.17
2023-05-08T15:54:53.134Z,44.81
2023-05-08T15:57:20.411Z,44.72
2023-05-08T15:59:47.721Z,45.48
2023-05-08T16:02:15.283Z,45.52
2023-05-08T16:04:42.545Z,45.63
2023-05-08T16:07:09.790Z,46.03
2023-05-08T16:09:37.095Z,46.53
2023-05-08T16:12:04.534Z,46.04
2023-05-08T16:14:31.779Z,47.29
2023-05-08T16:16:58.941Z,46.11
2023-05-08T16:19:29.021Z,47.11
2023-05-08T16:21:56.239Z,46.64
2023-05-08T16:24:23.596Z,47.36
2023-05-08T16:26:51.158Z,48.56
2023-05-08T16:29:18.480Z,47.63
2023-05-08T16:31:45.796Z,47.73
2023-05-08T16:34:13.274Z,48.76
2023-05-08T16:36:40.754Z,48.62
2023-05-08T16:39:08.599Z,48.93
2023-05-08T16:41:35.847Z,48.99
2023-05-08T16:44:04.841Z,50.17
2023-05-08T16:46:32.078Z,49.45
2023-05-08T16:48:59.294Z,48.92
2023-05-08T16:51:26.758Z,48.76
2023-05-08T16:53:55.457Z,49.87
2023-05-08T16:56:24.520Z,50.91
2023-05-08T16:58:51.744Z,51.42
2023-05-08T17:01:19.054Z,50.74
2023-05-08T17:03:49.897Z,51.19
2023-05-08T17:06:17.186Z,50.98
2023-05-08T17:08:44.464Z,51.86
2023-05-08T17:11:11.652Z,52.20
2023-05-08T17:13:38.801Z,51.76
2023-05-08T17:16:06.941Z,52.51
2023-05-08T17:18:34.224Z,52.67
2023-05-08T17:21:01.519Z,52.40
2023-05-08T17:23:28.764Z,53.53
2023-05-08T17:26:00.205Z,53.34
2023-05-08T17:28:27.467Z,53.46
2023-05-08T17:30:58.829Z,52.63
2023-05-08T17:33:26.193Z,52.54
2023-05-08T17:35:53.414Z,53.08
2023-05-08T17:38:21.077Z,53.61
2023-05-08T17:40:48.321Z,53.80
2023-05-08T17:43:17.395Z,53.91
2023-05-08T17:45:47.582Z,53.25
2023-05-08T17:48:14.803Z,53.26
2023-05-08T17:50:47.081Z,53.17
2023-05-08T17:53:14.417Z,53.32
2023-05-08T17:55:41.726Z,52.96
2023-05-08T17:58:09.250Z,53.82
2023-05-08T18:00:36.552Z,53.50
2023-05-08T18:03:04.676Z,54.17
2023-05-08T18:05:32.523Z,54.75
2023-05-08T18:08:01.676Z,54.91
2023-05-08T18:10:31.529Z,55.01
2023-05-08T18:12:59.822Z,55.33
2023-05-08T18:15:29.313Z,55.57
2023-05-08T18:17:58.707Z,55.97
2023-05-08T18:20:26.831Z,56.63
2023-05-08T18:22:56.071Z,56.77
2023-05-08T18:25:24.091Z,56.35
2023-05-08T18:27:53.201Z,57.10
2023-05-08T18:30:20.463Z,57.33
2023-05-08T18:32:50.915Z,58.63
2023-05-08T18:35:18.277Z,58.52
2023-05-08T18:37:45.533Z,58.39
2023-05-08T18:40:16.388Z,59.48
2023-05-08T18:42:47.271Z,61.01
2023-05-08T18:45:14.537Z,60.02
2023-05-08T18:47:41.986Z,59.51
2023-05-08T18:50:10.138Z,59.60
2023-05-08T18:52:37.342Z,58.85
2023-05-08T18:55:08.009Z,59.50
2023-05-08T18:57:35.298Z,60.01
2023-05-08T19:00:02.801Z,59.85
2023-05-08T19:02:34.449Z,60.08
2023-05-08T19:05:03.608Z,59.83
2023-05-08T19:07:32.723Z,60.37
2023-05-08T19:10:00.479Z,60.16
2023-05-08T19:12:27.747Z,60.24
2023-05-08T19:14:56.840Z,60.36
2023-05-08T19:17:25.912Z,60.84
2023-05-08T19:19:55.094Z,61.20
2023-05-08T19:22:25.828Z,61.36
2023-05-08T19:24:54.896Z,61.15
2023-05-08T19:27:22.558Z,62.24
2023-05-08T19:29:52.506Z,61.87
2023-05-08T19:32:19.707Z,62.63
2023-05-08T19:34:48.484Z,62.65
2023-05-08T19:37:15.667Z,62.58
2023-05-08T19:39:44.774Z,63.26
2023-05-08T19:42:14.064Z,63.18
2023-05-08T19:44:43.248Z,62.78
2023-05-08T19:47:10.470Z,63.07
2023-05-08T19:49:37.755Z,62.98
2023-05-08T19:52:05.435Z,62.42
2023-05-08T19:54:34.507Z,62.68
2023-05-08T19:57:05.250Z,62.16
2023-05-08T19:59:32.451Z,61.90
2023-05-08T20:01:59.709Z,62.33
2023-05-08T20:04:29.001Z,62.25
2023-05-08T20:06:56.279Z,62.46
2023-05-08T20:09:23.641Z,62.70
2023-05-08T20:11:50.923Z,62.94
2023-05-08T20:14:18.242Z,63.14
2023-05-08T20:16:48.205Z,63.52
2023-05-08T20:19:15.525Z,63.26
2023-05-08T20:21:42.789Z,63.73
2023-05-08T20:24:10.076Z,63.72
2023-05-08T20:26:37.402Z,63.95
2023-05-08T20:29:04.604Z,64.67
2023-05-08T20:31:32.377Z,64.85
2023-05-08T20:34:01.565Z,64.37
2023-05-08T20:36:31.496Z,63.94
2023-05-08T20:38:58.844Z,64.60
2023-05-08T20:41:27.927Z,64.20
2023-05-08T20:43:55.162Z,64.22
2023-05-08T20:46:22.571Z,64.00
2023-05-08T20:48:51.362Z,64.36
2023-05-08T20:51:18.583Z,64.53
2023-05-08T20:53:45.960Z,64.31
2023-05-08T20:56:15.709Z,64.64
2023-05-08T20:58:46.359Z,64.04
2023-05-08T21:01:13.653Z,64.21
2023-05-08T21:03:40.884Z,64.89
2023-05-08T21:06:08.290Z,64.64
2023-05-08T21:08:36.157Z,64.79
2023-05-08T21:11:03.768Z,65.25
2023-05-08T21:13:32.808Z,64.88
2023-05-08T21:16:01.933Z,65.75
2023-05-08T21:18:29.213Z,68.27
2023-05-08T21:20:57.265Z,67.75
2023-05-08T21:23:25.646Z,66.97
2023-05-08T21:25:53.315Z,66.56
2023-05-08T21:28:22.437Z,67.06
2023-05-08T21:30:49.721Z,66.09
2023-05-08T21:33:18.133Z,66.15
2023-05-08T21:35:45.534Z,66.02
2023-05-08T21:38:12.853Z,66.63
2023-05-08T21:40:41.977Z,69.16
2023-05-08T21:43:11.185Z,72.58
2023-05-08T21:45:38.526Z,70.05
2023-05-08T21:48:06.300Z,68.42
2023-05-08T21:50:34.347Z,68.23
2023-05-08T21:53:01.708Z,68.14
2023-05-08T21:55:30.993Z,68.40
2023-05-08T21:57:59.608Z,69.45
2023-05-08T22:00:29.505Z,71.74
2023-05-08T22:02:57.694Z,73.12
2023-05-08T22:05:25.938Z,73.05
2023-05-08T22:07:54.159Z,70.92
2023-05-08T22:10:22.335Z,70.44
2023-05-08T22:12:50.607Z,70.91
2023-05-08T22:15:29.116Z,70.84
2023-05-08T22:17:59.600Z,71.24
2023-05-08T22:20:29.820Z,71.24
2023-05-08T22:22:57.100Z,70.37
2023-05-08T22:25:26.950Z,70.92
2023-05-08T22:27:55.151Z,71.23
2023-05-08T22:30:23.251Z,71.56
2023-05-08T22:32:58.451Z,71.05
2023-05-08T22:35:27.854Z,70.47
2023-05-08T22:37:58.253Z,70.65
2023-05-08T22:40:28.527Z,71.27
2023-05-08T22:42:56.598Z,71.76
2023-05-08T22:45:23.978Z,71.21
2023-05-08T22:47:51.617Z,70.71
2023-05-08T22:50:21.353Z,70.50
2023-05-08T22:52:48.689Z,70.93
2023-05-08T22:55:16.747Z,70.88
2023-05-08T22:57:44.275Z,70.31
2023-05-08T23:00:13.918Z,71.00
2023-05-08T23:02:42.015Z,70.64
2023-05-08T23:05:11.243Z,70.95
2023-05-08T23:07:38.505Z,71.04
2023-05-08T23:10:08.245Z,71.07
2023-05-08T23:12:35.613Z,71.31
2023-05-08T23:15:04.814Z,72.44
2023-05-08T23:17:32.140Z,73.13
2023-05-08T23:20:03.080Z,72.22
2023-05-08T23:22:30.514Z,71.66
2023-05-08T23:24:57.736Z,72.79
2023-05-08T23:27:26.059Z,72.82
2023-05-08T23:29:55.222Z,73.29
2023-05-08T23:32:22.489Z,73.06
2023-05-08T23:34:49.773Z,72.89
2023-05-08T23:37:16.997Z,72.36
2023-05-08T23:39:44.268Z,72.75
2023-05-08T23:42:12.640Z,72.82
2023-05-08T23:44:41.694Z,75.78
2023-05-08T23:47:08.988Z,76.16
2023-05-08T23:49:38.101Z,75.05
2023-05-08T23:52:07.258Z,76.58
2023-05-08T23:54:34.479Z,76.55
2023-05-08T23:57:01.740Z,76.87
2023-05-08T23:59:29.024Z,75.73
